Weather at Prince Hamza Hospital Heliport

Public forecast

Using degrees Celsius for public forecast. Weather courtesy of forecast.io.

Closest aviation weather report (METAR) to Prince Hamza Hospital Heliport

Closest report is Amman Civil (Marka International) Airport, 2.8 nm (5.1 km) ESE.

2024/07/17 19:00 (retrieved 57 minutes ago)

OJAM 171900Z 32004KT 8000 NSC 27/11 Q1012 NOSIG

Closest aviation forecast (TAF) to Prince Hamza Hospital Heliport

Closest forecast is Amman Civil (Marka International) Airport, 2.8 nm (5.1 km) ESE.

2024/07/17 18:12 (retrieved 2 hours ago)

TAF OJAM 171700Z 1718/1824 29010KT 6000 NSC